Time;durP1;ratioP1;P1;durP2;ratioP2;P2;SDS_P1;SDS_P2;PMS_P1;PMS_P2;Temp;Humidity;BMP_temperature;BMP_pressure;BME280_temperature;BME280_humidity;BME280_pressure;Samples;Min_cycle;Max_cycle;Signal;HPM_P1;HPM_P2
2021/01/31 00:00:51;;;;;;;;;15.50;15.50;;;;;7.27;76.94;99665.72;4961359;28;11639;-78
2021/01/31 00:03:46;;;;;;;;;17.50;16.25;;;;;7.35;76.64;99667.63;4953547;28;11610;-79
2021/01/31 00:06:43;;;;;;;;;22.50;17.25;;;;;7.31;76.51;99666.69;4970564;28;13016;-79
2021/01/31 00:09:38;;;;;;;;;15.50;14.75;;;;;7.20;77.01;99669.00;4964474;28;11623;-79
2021/01/31 00:12:34;;;;;;;;;15.00;15.00;;;;;7.26;76.52;99672.38;4960601;28;11583;-79
2021/01/31 00:15:38;;;;;;;;;8.00;8.00;;;;;7.24;76.66;99671.91;4960934;28;11722;-79
2021/01/31 00:18:06;;;;;;;;;17.50;15.00;;;;;7.26;76.49;99669.63;4956600;28;11573;-78
2021/01/31 00:21:03;;;;;;;;;16.25;15.25;;;;;7.17;77.32;99668.88;4960027;28;11614;-78
2021/01/31 00:24:02;;;;;;;;;16.25;16.25;;;;;7.17;77.50;99669.69;4964818;28;11716;-78
2021/01/31 00:26:57;;;;;;;;;19.00;18.75;;;;;7.17;77.48;99674.38;4961359;28;11579;-79
2021/01/31 00:29:41;;;;;;;;;16.50;16.50;;;;;7.20;77.25;99663.50;4939268;28;11616;-79
2021/01/31 00:32:37;;;;;;;;;16.25;16.25;;;;;7.19;77.04;99666.59;4963930;28;11674;-79
2021/01/31 00:35:08;;;;;;;;;17.75;16.75;;;;;7.08;77.71;99663.44;4965821;28;11627;-80
2021/01/31 00:38:10;;;;;;;;;13.50;13.50;;;;;7.14;76.74;99661.31;4959025;28;11829;-78
2021/01/31 00:41:05;;;;;;;;;21.00;19.25;;;;;7.18;77.06;99662.25;4958680;28;11683;-78
2021/01/31 00:44:03;;;;;;;;;14.00;13.50;;;;;7.11;76.92;99656.47;4962518;28;11635;-76
2021/01/31 00:46:54;;;;;;;;;18.50;18.00;;;;;7.15;76.84;99655.47;4962120;28;11673;-77
2021/01/31 00:49:35;;;;;;;;;16.75;16.75;;;;;7.16;76.93;99659.81;4970820;28;11584;-78
2021/01/31 00:52:04;;;;;;;;;12.75;12.75;;;;;7.13;77.01;99652.25;4962920;28;11615;-79
2021/01/31 00:55:00;;;;;;;;;14.25;12.25;;;;;7.02;77.46;99639.22;4963920;28;11578;-79
2021/01/31 00:57:51;;;;;;;;;14.00;14.00;;;;;7.04;77.40;99645.19;4960039;28;11613;-78
2021/01/31 01:00:49;;;;;;;;;16.75;16.75;;;;;7.13;77.38;99641.25;4963602;28;12384;-78
2021/01/31 01:03:32;;;;;;;;;14.50;13.75;;;;;7.01;77.73;99637.59;4957662;28;11622;-78
2021/01/31 01:06:01;;;;;;;;;14.00;14.00;;;;;7.06;77.40;99640.97;4982225;28;11725;-78
2021/01/31 01:08:57;;;;;;;;;13.25;13.25;;;;;6.99;77.60;99639.88;4968287;28;12501;-78
2021/01/31 01:11:54;;;;;;;;;14.25;14.25;;;;;6.86;78.11;99628.78;4961554;28;11607;-78
2021/01/31 01:14:49;;;;;;;;;10.50;10.50;;;;;6.93;78.13;99629.06;4967858;28;11742;-78
2021/01/31 01:17:18;;;;;;;;;13.75;12.00;;;;;6.94;78.20;99627.94;4950924;28;11707;-78
2021/01/31 01:19:46;;;;;;;;;4.50;0.25;;;;;7.06;77.57;99623.69;4961616;28;11653;-79
2021/01/31 01:22:38;;;;;;;;;0.00;0.00;;;;;7.09;77.39;99629.31;4959334;28;11546;-78
2021/01/31 01:25:08;;;;;;;;;18.25;15.75;;;;;7.03;77.55;99627.06;4959173;28;11616;-77
2021/01/31 01:27:55;;;;;;;;;13.50;13.50;;;;;7.02;77.94;99630.97;4959637;28;11742;-77
2021/01/31 01:30:51;;;;;;;;;15.00;15.00;;;;;7.05;77.85;99624.78;4964704;28;11607;-78
2021/01/31 01:33:21;;;;;;;;;14.00;14.00;;;;;7.01;77.91;99627.41;4961338;28;11605;-77
2021/01/31 01:36:04;;;;;;;;;15.00;15.00;;;;;7.02;77.87;99633.72;4961876;28;11643;-76
2021/01/31 01:39:00;;;;;;;;;15.00;15.00;;;;;6.93;77.95;99626.31;4971502;28;11649;-78
2021/01/31 01:41:59;;;;;;;;;11.00;11.00;;;;;6.96;77.97;99619.34;4962155;28;11593;-78
2021/01/31 01:44:42;;;;;;;;;11.00;11.00;;;;;6.99;78.02;99615.16;4972708;28;11629;-78
2021/01/31 01:47:21;;;;;;;;;11.50;11.00;;;;;6.91;77.81;99617.63;4955328;28;11682;-77
2021/01/31 01:50:23;;;;;;;;;14.25;14.25;;;;;6.98;77.88;99614.34;4963366;28;11568;-78
2021/01/31 01:52:55;;;;;;;;;15.00;14.50;;;;;6.92;77.89;99621.16;4963529;28;11598;-78
2021/01/31 01:56:00;;;;;;;;;17.25;17.25;;;;;6.90;78.29;99616.00;4951229;28;11668;-78
2021/01/31 01:58:56;;;;;;;;;15.00;15.00;;;;;6.93;78.33;99609.84;4947678;28;11649;-78
2021/01/31 02:02:04;;;;;;;;;13.25;13.25;;;;;7.02;77.97;99606.22;4959895;28;11613;-79
2021/01/31 02:05:03;;;;;;;;;13.25;13.25;;;;;6.90;77.93;99596.78;4966928;28;11771;-79
2021/01/31 02:08:00;;;;;;;;;12.50;12.50;;;;;6.92;77.92;99597.22;4962009;28;11595;-79
2021/01/31 02:10:57;;;;;;;;;18.75;15.50;;;;;6.94;78.05;99600.44;4961881;28;11626;-80
2021/01/31 02:14:00;;;;;;;;;14.00;12.75;;;;;7.00;78.20;99600.25;4963142;28;11632;-78
2021/01/31 02:17:06;;;;;;;;;17.00;16.25;;;;;6.86;78.33;99595.00;4955606;28;11574;-80
2021/01/31 02:20:03;;;;;;;;;15.00;15.00;;;;;6.90;78.41;99602.25;4962525;28;11647;-79
2021/01/31 02:23:02;;;;;;;;;14.25;14.25;;;;;6.88;78.37;99596.28;4969365;28;11629;-79
2021/01/31 02:26:06;;;;;;;;;14.50;14.50;;;;;6.89;78.74;99608.88;4962894;28;11585;-79
2021/01/31 02:29:40;;;;;;;;;13.75;13.75;;;;;6.95;78.14;99601.25;4973319;28;11675;-80
2021/01/31 02:32:42;;;;;;;;;16.25;16.25;;;;;6.87;78.97;99602.09;4950690;28;11606;-79
2021/01/31 02:35:40;;;;;;;;;13.75;13.75;;;;;6.83;78.61;99604.72;4958099;28;11585;-80
2021/01/31 02:38:49;;;;;;;;;16.75;16.50;;;;;6.94;78.59;99597.69;4964077;28;11589;-79
2021/01/31 02:42:10;;;;;;;;;13.25;13.25;;;;;6.92;78.66;99602.72;4962523;28;11953;-79
2021/01/31 02:45:13;;;;;;;;;13.50;13.50;;;;;6.77;78.74;99606.06;4955551;28;11588;-79
2021/01/31 02:48:11;;;;;;;;;11.25;11.25;;;;;6.91;78.79;99603.88;4947231;28;11618;-79
2021/01/31 02:50:52;;;;;;;;;12.50;12.50;;;;;6.95;78.41;99606.75;4963070;28;11590;-79
2021/01/31 02:53:30;;;;;;;;;13.25;13.25;;;;;6.95;78.38;99623.25;4959918;28;11679;-80
2021/01/31 02:56:07;;;;;;;;;13.50;13.50;;;;;6.96;78.68;99627.59;4949599;28;11610;-80
2021/01/31 02:59:10;;;;;;;;;12.00;12.00;;;;;7.02;78.85;99619.97;4959669;28;11656;-80
2021/01/31 03:02:15;;;;;;;;;12.25;12.25;;;;;6.94;78.89;99619.69;4960886;28;11574;-79
2021/01/31 03:05:18;;;;;;;;;13.00;13.00;;;;;7.00;78.44;99622.25;4961674;28;11559;-78
2021/01/31 03:07:54;;;;;;;;;9.50;9.50;;;;;7.00;78.45;99616.75;4943334;28;11681;-79
2021/01/31 03:10:31;;;;;;;;;12.25;11.50;;;;;6.99;78.69;99615.16;4966423;28;11688;-79
2021/01/31 03:13:08;;;;;;;;;20.25;13.50;;;;;6.95;78.52;99621.28;4966921;28;11582;-80
2021/01/31 03:15:50;;;;;;;;;13.00;12.50;;;;;6.97;78.90;99621.75;4950477;28;11675;-79
2021/01/31 03:18:31;;;;;;;;;14.25;10.25;;;;;6.85;79.04;99620.88;4963719;28;12399;-78
2021/01/31 03:21:22;;;;;;;;;11.50;11.50;;;;;7.00;78.79;99634.06;4969919;28;11602;-79
2021/01/31 03:24:30;;;;;;;;;11.00;11.00;;;;;6.98;78.54;99630.84;4963855;28;11591;-79
2021/01/31 03:27:16;;;;;;;;;1.00;1.00;;;;;6.92;78.79;99623.91;4961367;28;11599;-79
2021/01/31 03:30:15;;;;;;;;;7.75;7.75;;;;;6.91;79.12;99625.88;4958903;28;11596;-80
2021/01/31 03:33:15;;;;;;;;;9.25;9.25;;;;;6.99;78.65;99631.66;4964035;28;11691;-80
2021/01/31 03:36:11;;;;;;;;;11.75;11.00;;;;;6.94;78.68;99632.63;4966198;28;11633;-79
2021/01/31 03:39:07;;;;;;;;;12.75;12.75;;;;;6.90;78.81;99635.25;4972735;28;11619;-79
2021/01/31 03:41:34;;;;;;;;;10.25;10.00;;;;;6.81;79.08;99631.72;4959259;28;11558;-78
2021/01/31 03:44:01;;;;;;;;;11.25;10.75;;;;;6.81;78.97;99639.97;4972622;28;11656;-79
2021/01/31 03:47:03;;;;;;;;;11.25;11.25;;;;;6.87;78.54;99644.13;4972583;28;11610;-80
2021/01/31 03:49:38;;;;;;;;;14.75;13.50;;;;;6.78;78.78;99642.56;4972924;28;11616;-80
2021/01/31 03:52:05;;;;;;;;;9.50;9.50;;;;;6.61;79.60;99637.97;4967723;28;11571;-80
2021/01/31 03:54:32;;;;;;;;;10.00;9.00;;;;;6.67;79.21;99642.97;4979183;28;11583;-79
2021/01/31 03:57:51;;;;;;;;;14.75;12.50;;;;;6.59;79.39;99637.47;4974839;28;11660;-79
2021/01/31 04:00:25;;;;;;;;;10.25;10.25;;;;;6.43;79.71;99650.16;4927551;29;11529;-79
2021/01/31 04:03:37;;;;;;;;;9.25;9.25;;;;;6.66;79.39;99646.81;4978830;28;11674;-79
2021/01/31 04:06:36;;;;;;;;;11.50;11.50;;;;;6.73;78.71;99657.28;4981310;28;11608;-79
2021/01/31 04:09:35;;;;;;;;;9.00;9.00;;;;;6.61;79.14;99657.19;4954767;28;12458;-79
2021/01/31 04:12:34;;;;;;;;;9.50;9.50;;;;;6.66;78.71;99651.50;4980951;28;11588;-79
2021/01/31 04:15:32;;;;;;;;;6.00;6.00;;;;;6.59;78.99;99653.97;4947848;28;11620;-79
2021/01/31 04:18:02;;;;;;;;;12.00;11.00;;;;;6.54;79.18;99660.47;4967170;28;11571;-79
2021/01/31 04:20:31;;;;;;;;;13.75;13.75;;;;;6.62;78.87;99669.81;4971661;28;11616;-79
2021/01/31 04:23:00;;;;;;;;;13.00;13.00;;;;;6.61;78.97;99668.19;4969308;28;12354;-78
2021/01/31 04:25:28;;;;;;;;;19.00;17.50;;;;;6.53;78.80;99675.31;4972495;28;11575;-78
2021/01/31 04:28:09;;;;;;;;;19.75;19.75;;;;;6.45;79.53;99678.91;4967569;28;12350;-79
2021/01/31 04:30:38;;;;;;;;;18.25;16.25;;;;;6.59;79.04;99681.44;4970485;28;11727;-78
2021/01/31 04:33:15;;;;;;;;;34.25;29.25;;;;;6.40;79.71;99679.88;4989180;28;11640;-80
2021/01/31 04:35:56;;;;;;;;;20.75;20.75;;;;;6.59;79.27;99681.44;4973440;28;11125;-81
2021/01/31 04:38:24;;;;;;;;;26.75;22.50;;;;;6.65;79.59;99675.44;4970721;28;11661;-79
2021/01/31 04:41:20;;;;;;;;;20.25;19.75;;;;;6.59;79.34;99670.44;4965974;28;11664;-79
2021/01/31 04:44:21;;;;;;;;;11.25;11.25;;;;;6.61;79.93;99676.44;4974169;28;11536;-80
2021/01/31 04:47:05;;;;;;;;;10.00;10.00;;;;;6.66;79.37;99688.03;4973681;28;11621;-80
2021/01/31 04:49:54;;;;;;;;;13.75;13.25;;;;;6.62;79.55;99678.03;4975278;28;11563;-80
2021/01/31 04:52:41;;;;;;;;;6.75;6.75;;;;;6.79;79.44;99679.91;4973184;28;11622;-80
2021/01/31 04:55:26;;;;;;;;;12.00;12.00;;;;;6.77;79.63;99687.69;4969353;28;11571;-81
2021/01/31 04:58:30;;;;;;;;;13.50;11.75;;;;;6.87;79.09;99682.63;4968785;28;11594;-81
2021/01/31 05:01:29;;;;;;;;;5.00;5.00;;;;;6.81;79.26;99697.66;4977703;28;11759;-80
2021/01/31 05:04:26;;;;;;;;;9.25;9.25;;;;;6.83;79.45;99711.09;4973770;28;11544;-82
2021/01/31 05:07:36;;;;;;;;;9.25;9.25;;;;;6.86;79.10;99716.72;4966880;28;11616;-80
2021/01/31 05:10:32;;;;;;;;;13.75;13.75;;;;;6.85;79.56;99722.56;4967747;28;11578;-79
2021/01/31 05:13:37;;;;;;;;;11.25;11.25;;;;;6.89;79.44;99738.06;4966965;28;11588;-80
2021/01/31 05:16:32;;;;;;;;;10.75;10.75;;;;;6.94;79.25;99756.31;4983463;28;11635;-81
2021/01/31 05:19:33;;;;;;;;;14.25;12.00;;;;;6.86;79.87;99754.41;4972109;28;12334;-80
2021/01/31 05:22:00;;;;;;;;;11.25;11.25;;;;;6.79;80.02;99765.91;4960250;28;11611;-80
2021/01/31 05:24:56;;;;;;;;;9.25;9.25;;;;;6.85;79.68;99781.09;4972313;28;11644;-79
2021/01/31 05:27:39;;;;;;;;;12.75;12.75;;;;;6.85;79.80;99781.09;4965211;28;11591;-80
2021/01/31 05:30:41;;;;;;;;;13.75;13.75;;;;;6.83;79.89;99779.81;4975386;28;11590;-80
2021/01/31 05:34:03;;;;;;;;;10.75;10.75;;;;;6.87;79.72;99792.56;4969020;28;11622;-79
2021/01/31 05:37:02;;;;;;;;;13.00;10.50;;;;;6.91;79.38;99784.47;4960897;28;11638;-81
2021/01/31 05:40:12;;;;;;;;;13.00;13.00;;;;;7.01;79.45;99786.03;4967561;28;11708;-79
2021/01/31 05:42:46;;;;;;;;;15.50;14.25;;;;;6.85;79.89;99786.59;4962438;28;11584;-80
2021/01/31 05:45:46;;;;;;;;;12.75;11.50;;;;;7.01;79.82;99806.09;4973865;28;12423;-80
2021/01/31 05:48:42;;;;;;;;;9.75;9.75;;;;;6.93;80.54;99809.69;4970367;28;11682;-79
2021/01/31 05:51:34;;;;;;;;;12.75;12.75;;;;;7.11;79.32;99802.19;4955791;28;11708;-81
2021/01/31 05:54:37;;;;;;;;;15.25;15.25;;;;;7.03;79.84;99820.31;4955543;28;11647;-80
2021/01/31 05:57:23;;;;;;;;;14.00;14.00;;;;;7.03;80.49;99839.56;4958857;28;11577;-81
2021/01/31 05:59:59;;;;;;;;;11.00;10.75;;;;;7.03;80.38;99847.00;4953528;28;11597;-83
2021/01/31 06:02:29;;;;;;;;;13.25;13.00;;;;;6.70;80.91;99858.53;4967958;28;11598;-82
2021/01/31 06:05:20;;;;;;;;;13.00;10.75;;;;;6.99;80.17;99866.09;4955893;28;12390;-80
2021/01/31 06:08:02;;;;;;;;;12.75;12.50;;;;;6.88;80.78;99864.81;4972556;28;11556;-80
2021/01/31 06:10:35;;;;;;;;;13.00;13.00;;;;;7.04;81.46;99873.34;4962671;28;11639;-82
2021/01/31 06:13:30;;;;;;;;;15.75;14.50;;;;;7.29;82.17;99864.25;4949846;28;11769;-82
2021/01/31 06:16:21;;;;;;;;;17.75;16.75;;;;;7.40;82.38;99871.00;4953822;28;11618;-81
2021/01/31 06:19:08;;;;;;;;;20.50;20.50;;;;;7.45;83.10;99878.25;4965440;28;11604;-80
2021/01/31 06:21:42;;;;;;;;;15.50;15.50;;;;;7.63;83.24;99866.03;4972466;28;11601;-79
2021/01/31 06:24:47;;;;;;;;;15.25;15.25;;;;;7.61;83.37;99870.25;4970837;28;11604;-80
2021/01/31 06:27:31;;;;;;;;;18.00;18.00;;;;;7.72;82.70;99866.00;4909772;29;11551;-80
2021/01/31 06:30:23;;;;;;;;;19.00;17.50;;;;;7.76;82.37;99864.19;4948790;28;11605;-81
2021/01/31 06:32:53;;;;;;;;;18.50;18.50;;;;;7.99;81.66;99873.78;4952693;28;11587;-81
2021/01/31 06:36:18;;;;;;;;;19.00;19.00;;;;;8.01;81.69;99876.19;4966859;28;11579;-80
2021/01/31 06:38:54;;;;;;;;;17.00;17.00;;;;;8.03;81.30;99877.47;4952287;28;11648;-82
2021/01/31 06:41:37;;;;;;;;;18.00;18.00;;;;;8.02;81.80;99892.38;4970313;28;11431;-83
2021/01/31 06:44:14;;;;;;;;;17.50;17.50;;;;;8.22;81.10;99892.75;4969505;28;11694;-82
2021/01/31 06:47:37;;;;;;;;;15.25;15.25;;;;;8.28;81.04;99910.69;4965113;28;11576;-81
2021/01/31 06:50:48;;;;;;;;;17.75;16.25;;;;;8.17;80.51;99921.28;4882739;29;11583;-81
2021/01/31 06:53:45;;;;;;;;;20.25;20.25;;;;;8.34;80.35;99917.63;4921240;28;11590;-80
2021/01/31 06:56:59;;;;;;;;;18.75;18.50;;;;;8.49;79.56;99913.50;4951380;28;11597;-79
2021/01/31 07:00:20;;;;;;;;;24.25;24.25;;;;;8.57;79.24;99916.19;4960713;28;11569;-82
2021/01/31 07:03:16;;;;;;;;;19.75;19.75;;;;;8.35;79.14;99911.00;4963277;28;11708;-80
2021/01/31 07:06:35;;;;;;;;;27.25;27.25;;;;;8.39;79.37;99906.44;4963724;28;11597;-80
2021/01/31 07:09:40;;;;;;;;;26.25;26.00;;;;;8.74;78.26;99911.66;4917786;28;11669;-80
2021/01/31 07:13:02;;;;;;;;;22.75;22.50;;;;;8.81;77.41;99912.72;4968567;28;11752;-81
2021/01/31 07:16:10;;;;;;;;;21.25;21.25;;;;;8.49;77.39;99921.75;4964286;28;11556;-80
2021/01/31 07:19:21;;;;;;;;;23.50;23.50;;;;;8.57;77.43;99931.91;4973112;28;11529;-79
2021/01/31 07:21:57;;;;;;;;;21.25;21.25;;;;;8.70;77.34;99935.56;4945259;28;11570;-81
2021/01/31 07:25:27;;;;;;;;;;;;;;;;;;;;;
2021/01/31 07:28:54;;;;;;;;;21.50;21.50;;;;;8.87;76.12;99940.91;4961846;28;11571;-80
2021/01/31 07:31:50;;;;;;;;;19.75;19.75;;;;;8.81;75.26;99942.25;4959348;28;11567;-77
2021/01/31 07:34:27;;;;;;;;;20.00;20.00;;;;;8.78;73.91;99960.28;4975957;28;11642;-75
2021/01/31 07:37:18;;;;;;;;;27.75;27.50;;;;;8.80;73.16;99965.47;4952922;28;11715;-81
2021/01/31 07:40:11;;;;;;;;;29.00;29.00;;;;;8.71;72.69;99979.31;4945405;28;11657;-80
2021/01/31 07:42:42;;;;;;;;;25.25;25.25;;;;;8.74;72.65;99983.34;4964017;28;11642;-79
2021/01/31 07:45:38;;;;;;;;;33.50;33.50;;;;;8.88;72.03;99979.19;4964112;28;11699;-82
2021/01/31 07:48:43;;;;;;;;;31.25;31.25;;;;;9.07;71.52;99978.72;4954546;28;11607;-82
2021/01/31 07:51:40;;;;;;;;;37.75;37.25;;;;;9.35;70.83;99997.44;4975596;28;11649;-83
2021/01/31 07:54:21;;;;;;;;;33.75;32.50;;;;;9.48;70.29;99988.06;4971446;28;11776;-81
2021/01/31 07:56:52;;;;;;;;;35.25;35.25;;;;;9.68;69.26;99995.47;4950268;28;11559;-81
2021/01/31 07:59:19;;;;;;;;;27.75;27.25;;;;;9.57;69.28;100007.28;4968254;28;11634;-81
2021/01/31 08:01:54;;;;;;;;;33.75;32.75;;;;;9.86;69.62;99995.28;4938748;29;11595;-81
2021/01/31 08:04:41;;;;;;;;;33.00;32.00;;;;;10.17;67.81;99995.53;4960372;28;11569;-81
2021/01/31 08:07:59;;;;;;;;;27.75;27.75;;;;;10.16;65.27;99998.66;4980858;28;12330;-82
2021/01/31 08:10:49;;;;;;;;;32.25;32.25;;;;;10.44;64.97;100020.91;4970243;28;11639;-83
2021/01/31 08:13:47;;;;;;;;;31.50;31.50;;;;;10.63;65.53;100039.66;4957982;28;11555;-82
2021/01/31 08:17:05;;;;;;;;;34.75;34.75;;;;;10.29;64.16;100061.91;4971100;28;11570;-82
2021/01/31 08:20:16;;;;;;;;;37.50;37.00;;;;;9.97;63.89;100076.56;4961799;28;12364;-83
2021/01/31 08:22:44;;;;;;;;;40.75;39.00;;;;;10.04;63.82;100076.78;4941167;28;11585;-85
2021/01/31 08:25:32;;;;;;;;;37.00;36.75;;;;;9.81;64.64;100089.38;4972870;28;11591;-82
2021/01/31 08:28:03;;;;;;;;;40.00;38.75;;;;;9.66;64.15;100090.81;4955482;28;11596;-84
2021/01/31 08:31:00;;;;;;;;;35.75;35.75;;;;;9.34;63.56;100087.69;4973566;28;11574;-84
2021/01/31 08:33:36;;;;;;;;;32.50;31.25;;;;;9.38;63.10;100094.16;4976494;28;12430;-83
2021/01/31 08:36:09;;;;;;;;;31.00;31.00;;;;;9.25;63.34;100097.19;4954157;28;11604;-81
2021/01/31 08:38:45;;;;;;;;;34.75;32.50;;;;;9.08;63.97;100104.44;4971225;28;11564;-84
2021/01/31 08:41:24;;;;;;;;;32.75;32.25;;;;;9.43;64.15;100106.94;4975921;28;11540;-83
2021/01/31 08:43:59;;;;;;;;;27.50;27.50;;;;;9.46;63.20;100117.31;4957472;28;11711;-84
2021/01/31 08:46:33;;;;;;;;;31.00;30.00;;;;;9.36;62.85;100137.03;4972144;28;12258;-83
2021/01/31 08:49:12;;;;;;;;;34.75;32.75;;;;;9.39;62.75;100156.50;4960037;28;11580;-81
2021/01/31 08:51:58;;;;;;;;;40.50;38.00;;;;;9.31;63.75;100160.13;4975595;28;11563;-82
2021/01/31 08:55:02;;;;;;;;;38.25;35.25;;;;;9.06;64.58;100183.97;4973878;28;11618;-83
2021/01/31 08:58:03;;;;;;;;;30.25;30.25;;;;;8.76;64.97;100157.53;4961588;28;11764;-81
2021/01/31 09:00:32;;;;;;;;;27.00;27.00;;;;;8.73;64.87;100169.19;4971712;28;11557;-80
2021/01/31 09:03:00;;;;;;;;;32.25;32.00;;;;;8.71;64.30;100168.72;4956169;28;11667;-81
2021/01/31 09:05:58;;;;;;;;;30.75;30.75;;;;;8.33;64.73;100174.97;4959919;28;11647;-80
2021/01/31 09:08:54;;;;;;;;;36.00;35.75;;;;;8.19;64.58;100193.63;4979790;28;11635;-80
2021/01/31 09:11:23;;;;;;;;;37.75;35.75;;;;;7.93;64.29;100208.25;4964980;28;11649;-82
2021/01/31 09:14:17;;;;;;;;;30.25;30.25;;;;;8.14;63.89;100218.63;4972199;28;11623;-83
2021/01/31 09:17:21;;;;;;;;;31.25;31.25;;;;;7.60;62.47;100235.47;4960851;28;11680;-81
2021/01/31 09:20:18;;;;;;;;;32.25;32.25;;;;;7.69;62.33;100227.22;4965880;28;11635;-82
2021/01/31 09:23:09;;;;;;;;;32.00;29.50;;;;;7.75;63.50;100234.19;4967462;28;11614;-82
2021/01/31 09:26:07;;;;;;;;;30.75;29.75;;;;;7.96;62.05;100246.16;4969658;28;11750;-78
2021/01/31 09:29:09;;;;;;;;;35.00;33.75;;;;;8.57;62.01;100241.41;4959760;28;11626;-80
2021/01/31 09:32:08;;;;;;;;;30.50;30.50;;;;;8.96;61.14;100253.28;4956672;28;11625;-82
2021/01/31 09:34:50;;;;;;;;;27.00;27.00;;;;;9.22;60.26;100253.19;4949943;28;11637;-82
2021/01/31 09:37:46;;;;;;;;;31.75;31.75;;;;;9.50;58.30;100269.25;4962666;28;11742;-79
2021/01/31 09:40:15;;;;;;;;;37.75;36.00;;;;;9.50;59.01;100267.28;4964787;28;11572;-80
2021/01/31 09:42:56;;;;;;;;;32.75;31.00;;;;;9.40;57.95;100273.19;4960738;28;11577;-80
2021/01/31 09:45:39;;;;;;;;;35.25;34.00;;;;;9.07;58.28;100293.16;4961261;28;11559;-80
2021/01/31 09:48:12;;;;;;;;;31.25;31.25;;;;;8.75;58.40;100299.28;4962960;28;11563;-79
2021/01/31 09:51:01;;;;;;;;;34.50;34.00;;;;;8.54;58.62;100316.50;4961244;28;12349;-80
2021/01/31 09:53:43;;;;;;;;;26.25;26.25;;;;;8.39;57.15;100314.22;4946996;28;11586;-80
2021/01/31 09:56:35;;;;;;;;;22.25;22.25;;;;;8.30;57.44;100321.66;4963920;28;11551;-80
2021/01/31 09:59:17;;;;;;;;;23.75;23.75;;;;;8.03;57.16;100331.84;4948585;28;11575;-80
2021/01/31 10:01:44;;;;;;;;;21.50;21.50;;;;;8.24;56.92;100345.00;4957232;28;11560;-79
2021/01/31 10:04:24;;;;;;;;;24.75;24.25;;;;;8.77;57.56;100346.63;4959297;28;11543;-80
2021/01/31 10:07:11;;;;;;;;;19.75;19.75;;;;;9.19;55.81;100342.91;4959741;28;11698;-79
2021/01/31 10:09:57;;;;;;;;;26.00;25.50;;;;;9.69;54.84;100364.31;4959144;28;11653;-82
2021/01/31 10:12:29;;;;;;;;;21.00;21.00;;;;;9.29;52.59;100372.13;4961627;28;11653;-79
2021/01/31 10:15:07;;;;;;;;;23.25;23.25;;;;;8.80;52.58;100374.34;4964376;28;11577;-80
2021/01/31 10:18:04;;;;;;;;;21.00;21.00;;;;;8.86;53.84;100383.25;4959528;28;11551;-79
2021/01/31 10:20:38;;;;;;;;;25.00;25.00;;;;;9.30;52.48;100384.78;4949618;28;11551;-79
2021/01/31 10:23:19;;;;;;;;;27.25;27.25;;;;;9.11;54.01;100385.13;4966243;28;11579;-79
2021/01/31 10:26:00;;;;;;;;;26.50;26.25;;;;;9.12;53.84;100394.22;4954268;28;11761;-79
2021/01/31 10:28:37;;;;;;;;;25.50;25.50;;;;;9.20;53.81;100393.41;4944204;28;11569;-80
2021/01/31 10:31:31;;;;;;;;;28.50;27.50;;;;;9.43;51.79;100407.78;4952453;28;11541;-82
2021/01/31 10:34:02;;;;;;;;;25.25;25.25;;;;;9.89;53.72;100408.88;4973158;28;11582;-81
2021/01/31 10:36:33;;;;;;;;;32.00;31.50;;;;;10.39;51.88;100410.88;4964491;28;11559;-81
2021/01/31 10:39:24;;;;;;;;;28.25;28.25;;;;;10.01;52.63;100418.09;4967477;28;11661;-79
2021/01/31 10:41:53;;;;;;;;;29.75;29.75;;;;;9.22;52.65;100428.97;4963191;28;11596;-80
2021/01/31 10:44:29;;;;;;;;;29.00;29.00;;;;;8.73;54.01;100442.13;4963080;28;11583;-77
2021/01/31 10:47:14;;;;;;;;;25.75;25.00;;;;;9.03;53.80;100435.63;4963429;28;12447;-80
2021/01/31 10:50:12;;;;;;;;;27.00;27.00;;;;;9.01;51.12;100459.16;4967045;28;11582;-81
2021/01/31 10:52:53;;;;;;;;;25.25;25.25;;;;;9.09;49.12;100463.88;4962989;28;11678;-80
2021/01/31 10:55:21;;;;;;;;;30.25;27.50;;;;;8.87;52.05;100462.09;4966799;28;11545;-82
2021/01/31 10:58:17;;;;;;;;;29.50;28.75;;;;;9.32;51.17;100472.75;4982286;28;11645;-83
2021/01/31 11:01:13;;;;;;;;;26.25;25.00;;;;;9.04;51.51;100473.09;4964386;28;11560;-80
2021/01/31 11:03:41;;;;;;;;;27.25;27.00;;;;;8.56;51.36;100468.56;4963600;28;11653;-78
2021/01/31 11:06:09;;;;;;;;;19.50;19.50;;;;;8.21;51.52;100464.91;4963474;28;11574;-81
2021/01/31 11:09:05;;;;;;;;;31.25;29.50;;;;;7.72;52.41;100464.09;4959087;28;11652;-79
2021/01/31 11:11:34;;;;;;;;;27.00;25.50;;;;;7.50;54.02;100473.19;4982449;28;11645;-79
2021/01/31 11:14:30;;;;;;;;;27.25;23.75;;;;;7.67;54.06;100483.50;4964619;28;11664;-79
2021/01/31 11:17:02;;;;;;;;;19.75;19.75;;;;;7.96;54.35;100485.72;4960601;28;11597;-80
2021/01/31 11:19:59;;;;;;;;;28.75;28.75;;;;;8.31;53.17;100494.09;4960862;28;11618;-79
2021/01/31 11:22:28;;;;;;;;;30.75;30.00;;;;;8.76;53.88;100497.47;4964928;28;11674;-79
2021/01/31 11:25:11;;;;;;;;;31.25;29.50;;;;;8.99;50.92;100500.88;4960505;28;11643;-78
2021/01/31 11:27:39;;;;;;;;;30.50;30.50;;;;;9.01;53.83;100503.31;4965113;28;11695;-79
2021/01/31 12:40:15;;;;;;;;;39.00;37.00;;;;;7.15;53.60;100625.38;4942796;28;11616;-79
2021/01/31 12:42:53;;;;;;;;;40.00;39.00;;;;;7.59;51.33;100632.91;4940965;28;11682;-80
2021/01/31 12:45:26;;;;;;;;;51.25;45.00;;;;;7.57;51.58;100642.56;4945034;28;11636;-81
2021/01/31 12:47:54;;;;;;;;;53.75;45.00;;;;;7.72;52.00;100643.00;4946162;28;11654;-82
2021/01/31 12:50:25;;;;;;;;;49.50;45.25;;;;;7.66;52.02;100654.44;4955659;28;11737;-80
2021/01/31 12:52:57;;;;;;;;;59.25;49.75;;;;;7.65;49.62;100658.34;4930019;28;11611;-80
2021/01/31 12:55:25;;;;;;;;;33.25;28.25;;;;;7.27;51.29;100658.66;4957919;28;11648;-80
2021/01/31 12:57:52;;;;;;;;;37.50;35.75;;;;;7.13;51.39;100668.88;4939945;28;11635;-81
2021/01/31 13:00:22;;;;;;;;;42.00;38.75;;;;;7.17;51.30;100676.22;4936303;28;11659;-81
2021/01/31 13:02:49;;;;;;;;;41.00;35.00;;;;;6.91;51.39;100678.69;4923412;29;11679;-82
2021/01/31 13:05:40;;;;;;;;;39.00;36.25;;;;;6.84;49.89;100689.28;4938441;29;11656;-83
2021/01/31 13:08:35;;;;;;;;;48.25;43.50;;;;;6.77;51.79;100707.31;4944385;29;11758;-82
2021/01/31 13:11:03;;;;;;;;;54.75;46.50;;;;;6.89;52.63;100713.91;4947647;28;11634;-81
2021/01/31 13:13:35;;;;;;;;;45.50;41.75;;;;;6.85;52.35;100709.34;4951743;29;11800;-80
2021/01/31 13:16:03;;;;;;;;;43.75;39.00;;;;;6.57;52.26;100712.06;4940447;29;11612;-82
2021/01/31 13:18:35;;;;;;;;;40.25;38.00;;;;;6.88;52.34;100704.03;4939231;29;11754;-82
2021/01/31 13:21:02;;;;;;;;;34.00;33.25;;;;;7.00;52.08;100709.03;4928674;28;11639;-83
2021/01/31 13:23:30;;;;;;;;;46.25;41.75;;;;;7.03;51.86;100719.41;4951032;29;11655;-82
2021/01/31 13:26:25;;;;;;;;;66.75;50.50;;;;;6.86;51.87;100720.03;4916533;29;11668;-82
2021/01/31 13:28:54;;;;;;;;;48.25;43.50;;;;;7.01;51.34;100732.66;4933262;29;11646;-81
2021/01/31 13:31:23;;;;;;;;;69.00;54.00;;;;;7.00;50.88;100749.47;4950176;29;11630;-80
2021/01/31 13:33:53;;;;;;;;;62.00;50.50;;;;;6.87;50.94;100753.81;4942362;28;11663;-79
2021/01/31 13:36:35;;;;;;;;;55.75;47.00;;;;;7.02;51.30;100758.22;4935457;29;11627;-83
2021/01/31 13:39:04;;;;;;;;;59.00;49.00;;;;;6.79;52.22;100760.84;4968479;28;11643;-79
2021/01/31 13:41:41;;;;;;;;;43.50;40.25;;;;;6.83;52.57;100769.31;4960201;28;11701;-80
2021/01/31 13:44:10;;;;;;;;;36.25;31.00;;;;;6.85;50.67;100778.88;4953177;28;11597;-80
2021/01/31 13:46:38;;;;;;;;;60.25;48.75;;;;;6.73;51.64;100786.78;4951935;28;11619;-83
2021/01/31 13:49:06;;;;;;;;;73.50;55.50;;;;;6.72;50.58;100796.16;4984330;28;11589;-81
2021/01/31 13:51:52;;;;;;;;;67.75;54.75;;;;;6.39;52.32;100798.94;4944965;28;11620;-81
2021/01/31 13:54:49;;;;;;;;;45.00;41.00;;;;;6.24;52.34;100803.84;4956712;28;11617;-84
2021/01/31 13:57:45;;;;;;;;;42.50;38.50;;;;;6.20;53.05;100800.88;4965137;28;11632;-83
2021/01/31 14:00:15;;;;;;;;;41.25;36.25;;;;;6.08;53.56;100806.84;4972237;28;11647;-82
2021/01/31 14:02:43;;;;;;;;;35.25;34.75;;;;;5.98;52.90;100797.91;4966882;28;11638;-82
2021/01/31 14:05:19;;;;;;;;;34.00;33.00;;;;;6.00;51.95;100809.44;4965985;28;11616;-83
2021/01/31 14:07:47;;;;;;;;;31.00;29.75;;;;;6.06;53.16;100808.25;4958025;28;11682;-82